Aviation Digital Data Service (ADDS)

Output produced by METARs form (0333 UTC 17 July 2018)
found at http://aviationweather.gov/adds/metars/
 
KTYR 162348Z 1700/1724 21007KT P6SM SCT250 
     FM171500 24010KT P6SM SCT100 SCT250 
     FM171800 24009KT P6SM FEW050 SCT120 SCT250